GMTA/AHU METAR and TAF weather

Enter ICAO airport designator
Station Type Date Time Source
GMTA METAR 2019/06/19 02:00 UTC NOAA

GMTA 190200Z 20002KT CAVOK 18/14 Q1015 NOSIG


Station Type Date Time Source
GMTA Decoded METAR 2019/06/19 02:00 UTC NOAA

Al Hoceima, Morocco (GMTA) 35-11N 003-51W 14M
Jun 18, 2019 - 10:00 PM EDT / 2019.06.19 0200 UTC
Wind: from the SSW (200 degrees) at 2 MPH (2 KT):0
Visibility: greater than 7 mile(s):0
Temperature: 64 F (18 C)
Dew Point: 57 F (14 C)
Relative Humidity: 77%
Pressure (altimeter): 29.97 in. Hg (1015 hPa)
ob: GMTA 190200Z 20002KT CAVOK 18/14 Q1015 NOSIG
cycle: 2

Station Type Date Time Source
GMTA TAF 2019/06/18 18:16 UTC NOAA

TAF GMTA 181700Z 1818/1924 36008KT CAVOK

Example: see airport list